createdAt,value
2023-02-28T00:01:10.062Z,13.77
2023-02-28T00:03:43.830Z,13.85
2023-02-28T00:06:18.807Z,13.85
2023-02-28T00:08:54.041Z,13.89
2023-02-28T00:11:29.986Z,13.88
2023-02-28T00:14:03.853Z,13.83
2023-02-28T00:16:38.320Z,13.73
2023-02-28T00:19:11.548Z,13.67
2023-02-28T00:21:48.225Z,13.84
2023-02-28T00:24:23.332Z,13.85
2023-02-28T00:26:55.988Z,13.72
2023-02-28T00:29:28.635Z,13.73
2023-02-28T00:32:09.863Z,13.78
2023-02-28T00:34:42.089Z,13.78
2023-02-28T00:37:16.471Z,13.59
2023-02-28T00:39:50.350Z,13.42
2023-02-28T00:42:25.384Z,13.65
2023-02-28T00:45:03.212Z,13.71
2023-02-28T00:47:36.080Z,13.62
2023-02-28T00:50:09.987Z,13.53
2023-02-28T00:52:41.931Z,13.48
2023-02-28T00:55:15.903Z,13.53
2023-02-28T00:57:47.312Z,13.51
2023-02-28T01:00:21.556Z,13.47
2023-02-28T01:02:59.575Z,13.37
2023-02-28T01:05:33.178Z,13.40
2023-02-28T01:08:06.844Z,13.72
2023-02-28T01:10:41.560Z,13.56
2023-02-28T01:13:14.160Z,13.43
2023-02-28T01:15:51.384Z,13.36
2023-02-28T01:18:26.969Z,13.38
2023-02-28T01:20:59.205Z,13.29
2023-02-28T01:23:32.985Z,13.29
2023-02-28T01:26:11.310Z,13.26
2023-02-28T01:28:47.968Z,13.39
2023-02-28T01:31:25.162Z,13.36
2023-02-28T01:33:58.502Z,13.46
2023-02-28T01:36:32.797Z,13.42
2023-02-28T01:39:06.728Z,13.34
2023-02-28T01:41:39.339Z,13.50
2023-02-28T01:44:48.605Z,13.46
2023-02-28T01:47:22.754Z,13.58
2023-02-28T01:49:57.820Z,13.63
2023-02-28T01:52:32.188Z,13.54
2023-02-28T01:55:06.548Z,13.64
2023-02-28T01:57:42.669Z,13.19
2023-02-28T02:00:16.923Z,13.11
2023-02-28T02:02:51.146Z,13.13
2023-02-28T02:05:24.634Z,12.86
2023-02-28T02:08:06.407Z,12.80
2023-02-28T02:10:55.265Z,12.92
2023-02-28T02:13:34.454Z,12.73
2023-02-28T02:16:08.021Z,12.78
2023-02-28T02:18:41.510Z,12.94
2023-02-28T02:21:45.047Z,13.15
2023-02-28T02:24:37.720Z,13.35
2023-02-28T02:27:20.081Z,13.31
2023-02-28T02:30:09.673Z,13.09
2023-02-28T02:32:49.112Z,13.07
2023-02-28T02:35:31.572Z,13.22
2023-02-28T02:38:07.663Z,13.07
2023-02-28T02:40:47.308Z,13.20
2023-02-28T02:43:24.687Z,13.24
2023-02-28T02:46:00.649Z,13.28
2023-02-28T02:48:35.179Z,13.09
2023-02-28T02:51:10.197Z,12.95
2023-02-28T02:53:46.711Z,12.95
2023-02-28T02:56:19.555Z,12.90
2023-02-28T02:58:53.361Z,12.89
2023-02-28T03:01:30.631Z,12.62
2023-02-28T03:04:04.381Z,12.33
2023-02-28T03:06:36.413Z,12.12
2023-02-28T03:09:06.999Z,12.28
2023-02-28T03:11:39.643Z,12.61
2023-02-28T03:14:31.020Z,12.54
2023-02-28T03:17:28.352Z,12.43
2023-02-28T03:20:19.676Z,12.66
2023-02-28T03:23:07.965Z,12.83
2023-02-28T03:25:50.147Z,12.63
2023-02-28T03:28:38.412Z,12.48
2023-02-28T03:31:20.848Z,12.57
2023-02-28T03:34:09.217Z,12.48
2023-02-28T03:36:46.488Z,12.55
2023-02-28T03:42:15.991Z,12.58
2023-02-28T03:44:50.079Z,12.74
2023-02-28T03:47:29.850Z,12.77
2023-02-28T03:50:11.915Z,12.57
2023-02-28T03:52:46.317Z,12.63
2023-02-28T03:55:18.889Z,12.41
2023-02-28T03:58:16.644Z,12.17
2023-02-28T04:00:52.757Z,12.35
2023-02-28T04:03:23.306Z,12.37
2023-02-28T04:05:56.628Z,12.25
2023-02-28T04:08:27.224Z,12.01
2023-02-28T04:11:00.686Z,12.12
2023-02-28T04:13:31.235Z,12.20
2023-02-28T04:16:01.877Z,12.19
2023-02-28T04:18:32.513Z,12.52
2023-02-28T04:21:03.389Z,12.16
2023-02-28T04:23:34.284Z,12.26
2023-02-28T04:26:05.208Z,12.06
2023-02-28T04:28:36.116Z,12.01
2023-02-28T04:31:07.693Z,12.09
2023-02-28T04:33:38.232Z,12.15
2023-02-28T04:36:10.814Z,12.28
2023-02-28T04:38:41.570Z,12.21
2023-02-28T04:41:12.163Z,12.14
2023-02-28T04:43:42.838Z,12.16
2023-02-28T04:46:13.506Z,12.24
2023-02-28T04:48:45.439Z,12.16
2023-02-28T04:51:17.714Z,12.19
2023-02-28T04:53:49.001Z,12.24
2023-02-28T04:56:20.882Z,12.02
2023-02-28T04:58:53.696Z,12.00
2023-02-28T05:01:27.658Z,12.04
2023-02-28T05:04:02.968Z,12.05
2023-02-28T05:06:35.647Z,12.09
2023-02-28T05:09:06.269Z,12.12
2023-02-28T05:11:38.392Z,12.03
2023-02-28T05:14:15.312Z,12.09
2023-02-28T05:16:46.082Z,12.08
2023-02-28T05:19:16.882Z,12.05
2023-02-28T05:21:56.323Z,12.08
2023-02-28T05:24:27.220Z,12.23
2023-02-28T05:26:59.333Z,12.16
2023-02-28T05:29:31.066Z,12.01
2023-02-28T05:32:01.800Z,11.78
2023-02-28T05:34:32.446Z,11.72
2023-02-28T05:37:03.051Z,11.68
2023-02-28T05:39:33.652Z,11.51
2023-02-28T05:42:04.422Z,11.62
2023-02-28T05:44:35.079Z,11.51
2023-02-28T05:47:05.614Z,11.57
2023-02-28T05:49:36.376Z,11.79
2023-02-28T05:52:07.009Z,11.86
2023-02-28T05:54:37.567Z,11.75
2023-02-28T05:57:15.654Z,11.82
2023-02-28T05:59:41.489Z,11.59
2023-02-28T06:02:14.986Z,11.51
2023-02-28T06:04:46.159Z,11.62
2023-02-28T06:07:18.501Z,11.73
2023-02-28T06:09:49.499Z,11.65
2023-02-28T06:12:20.085Z,11.56
2023-02-28T06:14:50.674Z,11.65
2023-02-28T06:17:21.235Z,11.88
2023-02-28T06:19:51.786Z,11.76
2023-02-28T06:22:22.357Z,11.81
2023-02-28T06:24:54.024Z,11.84
2023-02-28T06:27:24.584Z,11.89
2023-02-28T06:29:58.087Z,11.90
2023-02-28T06:32:28.738Z,11.85
2023-02-28T06:34:59.356Z,11.77
2023-02-28T06:37:29.891Z,11.92
2023-02-28T06:40:00.890Z,12.07
2023-02-28T06:42:32.031Z,12.06
2023-02-28T06:45:04.214Z,12.01
2023-02-28T06:47:34.832Z,12.15
2023-02-28T06:50:08.317Z,12.09
2023-02-28T06:52:39.178Z,12.16
2023-02-28T06:55:11.539Z,12.16
2023-02-28T06:57:42.096Z,12.30
2023-02-28T07:00:13.801Z,12.43
2023-02-28T07:02:45.822Z,12.58
2023-02-28T07:05:16.508Z,13.00
2023-02-28T07:07:48.466Z,13.01
2023-02-28T07:10:20.412Z,12.89
2023-02-28T07:12:52.645Z,13.00
2023-02-28T07:15:23.250Z,13.12
2023-02-28T07:17:53.813Z,13.26
2023-02-28T07:20:24.990Z,13.11
2023-02-28T07:22:58.836Z,13.00
2023-02-28T07:25:30.816Z,13.21
2023-02-28T07:28:01.459Z,13.13
2023-02-28T07:30:32.033Z,13.34
2023-02-28T07:33:02.615Z,13.22
2023-02-28T07:35:33.486Z,13.48
2023-02-28T07:38:05.102Z,13.70
2023-02-28T07:40:36.730Z,13.79
2023-02-28T07:43:07.286Z,13.81
2023-02-28T07:45:37.892Z,13.69
2023-02-28T07:48:10.119Z,13.60
2023-02-28T07:50:40.721Z,13.44
2023-02-28T07:53:11.316Z,13.67
2023-02-28T07:55:41.967Z,14.03
2023-02-28T07:58:13.988Z,13.63
2023-02-28T08:00:45.848Z,13.47
2023-02-28T08:03:21.077Z,13.44
2023-02-28T08:05:53.776Z,13.70
2023-02-28T08:08:25.454Z,13.66
2023-02-28T08:10:57.370Z,13.94
2023-02-28T08:13:28.421Z,14.06
2023-02-28T08:15:59.509Z,14.13
2023-02-28T08:18:31.510Z,14.09
2023-02-28T08:21:02.135Z,14.19
2023-02-28T08:23:34.737Z,14.10
2023-02-28T08:26:06.128Z,14.64
2023-02-28T08:28:36.698Z,14.75
2023-02-28T08:31:12.298Z,14.75
2023-02-28T08:33:44.020Z,15.04
2023-02-28T08:36:15.036Z,15.04
2023-02-28T08:38:45.963Z,15.05
2023-02-28T08:41:16.558Z,14.98
2023-02-28T08:43:47.132Z,15.27
2023-02-28T08:46:18.944Z,15.73
2023-02-28T08:48:49.617Z,15.75
2023-02-28T08:51:21.804Z,15.75
2023-02-28T08:53:52.383Z,15.39
2023-02-28T08:56:23.384Z,15.36
2023-02-28T08:58:55.614Z,15.43
2023-02-28T09:01:32.657Z,15.63
2023-02-28T09:04:03.575Z,15.35
2023-02-28T09:06:34.836Z,15.83
2023-02-28T09:09:07.634Z,15.52
2023-02-28T09:11:38.549Z,15.71
2023-02-28T09:14:09.521Z,15.74
2023-02-28T09:16:40.256Z,15.87
2023-02-28T09:19:15.558Z,15.70
2023-02-28T09:21:46.154Z,15.69
2023-02-28T09:24:16.730Z,16.17
2023-02-28T09:27:03.323Z,15.85
2023-02-28T09:29:19.558Z,16.01
2023-02-28T09:31:50.918Z,16.46
2023-02-28T09:34:21.565Z,16.71
2023-02-28T09:36:54.153Z,17.15
2023-02-28T09:39:27.202Z,17.73
2023-02-28T09:41:59.710Z,17.20
2023-02-28T09:44:36.068Z,18.38
2023-02-28T09:47:12.552Z,20.88
2023-02-28T09:49:48.930Z,24.00
2023-02-28T09:52:25.404Z,25.55
2023-02-28T09:54:56.074Z,27.54
2023-02-28T09:57:41.672Z,26.45
2023-02-28T10:00:36.274Z,26.45
2023-02-28T10:03:15.852Z,30.87
2023-02-28T10:05:55.247Z,31.59
2023-02-28T10:08:28.769Z,30.05
2023-02-28T10:11:06.019Z,29.89
2023-02-28T10:13:59.084Z,33.36
2023-02-28T10:16:35.063Z,33.51
2023-02-28T10:19:14.605Z,33.72
2023-02-28T10:21:48.106Z,31.96
2023-02-28T10:24:36.984Z,32.88
2023-02-28T10:27:19.735Z,33.37
2023-02-28T10:29:52.682Z,33.85
2023-02-28T10:32:38.063Z,34.35
2023-02-28T10:35:23.979Z,33.76
2023-02-28T10:38:02.436Z,33.31
2023-02-28T10:40:36.828Z,33.84
2023-02-28T10:43:18.972Z,32.85
2023-02-28T10:46:07.889Z,32.89
2023-02-28T10:49:04.369Z,33.65
2023-02-28T10:51:40.994Z,33.17
2023-02-28T10:54:32.616Z,30.43
2023-02-28T10:57:21.755Z,25.30
2023-02-28T10:59:58.920Z,22.47
2023-02-28T11:02:43.110Z,20.94
2023-02-28T11:05:31.896Z,21.24
2023-02-28T11:08:14.154Z,21.11
2023-02-28T11:10:50.989Z,20.83
2023-02-28T11:13:26.890Z,20.73
2023-02-28T11:16:00.481Z,21.16
2023-02-28T11:18:34.034Z,20.50
2023-02-28T11:21:05.228Z,19.99
2023-02-28T11:23:39.110Z,20.57
2023-02-28T11:26:13.213Z,19.29
2023-02-28T11:28:44.789Z,18.44
2023-02-28T11:31:19.897Z,18.50
2023-02-28T11:33:53.749Z,19.80
2023-02-28T11:36:33.768Z,20.69
2023-02-28T11:39:10.135Z,20.22
2023-02-28T11:41:46.340Z,19.56
2023-02-28T11:44:22.997Z,20.30
2023-02-28T11:47:14.574Z,20.70
2023-02-28T11:49:54.129Z,20.88
2023-02-28T11:52:30.464Z,20.13
2023-02-28T11:55:03.943Z,20.00
2023-02-28T11:57:53.989Z,20.44
2023-02-28T12:00:43.645Z,19.91
2023-02-28T12:03:43.765Z,20.02
2023-02-28T12:06:50.566Z,20.02
2023-02-28T12:09:24.839Z,19.90
2023-02-28T12:12:04.213Z,20.58
2023-02-28T12:14:40.540Z,20.58
2023-02-28T12:17:26.024Z,20.33
2023-02-28T12:20:17.421Z,20.18
2023-02-28T12:23:03.220Z,20.38
2023-02-28T12:25:50.788Z,20.53
2023-02-28T12:28:26.544Z,20.90
2023-02-28T12:31:02.805Z,21.07
2023-02-28T12:33:39.117Z,21.08
2023-02-28T12:36:13.425Z,20.40
2023-02-28T12:38:49.715Z,20.40
2023-02-28T12:41:26.066Z,20.92
2023-02-28T12:43:59.561Z,21.06
2023-02-28T12:46:38.678Z,21.06
2023-02-28T12:49:12.160Z,20.54
2023-02-28T12:51:43.216Z,20.92
2023-02-28T12:54:16.717Z,20.94
2023-02-28T12:56:56.400Z,20.28
2023-02-28T12:59:41.711Z,20.44
2023-02-28T13:02:35.458Z,20.28
2023-02-28T13:05:34.931Z,20.35
2023-02-28T13:08:32.092Z,21.26
2023-02-28T13:11:07.510Z,20.91
2023-02-28T13:13:35.016Z,20.41
2023-02-28T13:16:08.099Z,21.17
2023-02-28T13:18:44.194Z,20.98
2023-02-28T13:21:32.643Z,20.84
2023-02-28T13:24:07.290Z,20.65
2023-02-28T13:26:43.687Z,20.83
2023-02-28T13:29:19.618Z,20.40
2023-02-28T13:32:09.951Z,20.36
2023-02-28T13:34:43.736Z,21.09
2023-02-28T13:37:32.168Z,20.55
2023-02-28T13:40:22.592Z,20.99
2023-02-28T13:42:53.661Z,20.30
2023-02-28T13:45:31.141Z,20.59
2023-02-28T13:48:04.903Z,20.64
2023-02-28T13:50:41.389Z,20.31
2023-02-28T13:53:17.591Z,20.59
2023-02-28T13:56:02.778Z,21.27
2023-02-28T13:58:42.178Z,21.30
2023-02-28T14:01:44.252Z,20.99
2023-02-28T14:04:26.774Z,20.30
2023-02-28T14:06:58.854Z,20.89
2023-02-28T14:09:32.355Z,20.89
2023-02-28T14:12:39.597Z,20.80
2023-02-28T14:15:30.453Z,20.40
2023-02-28T14:18:06.701Z,20.78
2023-02-28T14:20:37.470Z,20.94
2023-02-28T14:23:10.912Z,20.85
2023-02-28T14:25:59.741Z,20.81
2023-02-28T14:28:56.145Z,21.01
2023-02-28T14:31:39.566Z,20.54
2023-02-28T14:34:35.859Z,21.00
2023-02-28T14:37:06.833Z,20.97
2023-02-28T14:39:38.090Z,21.42
2023-02-28T14:42:29.315Z,21.10
2023-02-28T14:45:00.224Z,20.57
2023-02-28T14:47:35.889Z,20.67
2023-02-28T14:50:07.487Z,20.51
2023-02-28T14:52:38.157Z,20.16
2023-02-28T14:55:12.878Z,20.56
2023-02-28T14:57:46.006Z,20.54
2023-02-28T15:00:25.219Z,20.47
2023-02-28T15:02:56.903Z,20.28
2023-02-28T15:05:33.438Z,19.91
2023-02-28T15:08:09.541Z,20.39
2023-02-28T15:10:41.738Z,20.45
2023-02-28T15:13:15.953Z,20.19
2023-02-28T15:16:02.244Z,20.15
2023-02-28T15:18:49.799Z,19.60
2023-02-28T15:21:26.368Z,20.01
2023-02-28T15:24:01.100Z,19.65
2023-02-28T15:26:43.527Z,19.83
2023-02-28T15:29:20.014Z,19.59
2023-02-28T15:31:59.004Z,19.57
2023-02-28T15:34:45.148Z,19.03
2023-02-28T15:37:44.556Z,19.03
2023-02-28T15:40:18.131Z,18.80
2023-02-28T15:43:03.643Z,18.93
2023-02-28T15:45:49.250Z,19.29
2023-02-28T15:48:23.926Z,19.35
2023-02-28T15:50:57.648Z,18.92
2023-02-28T15:53:32.460Z,19.04
2023-02-28T15:56:10.293Z,18.99
2023-02-28T15:58:42.826Z,18.58
2023-02-28T16:01:33.436Z,18.35
2023-02-28T16:04:08.267Z,18.42
2023-02-28T16:06:43.722Z,18.89
2023-02-28T16:09:16.714Z,18.68
2023-02-28T16:11:52.995Z,18.83
2023-02-28T16:14:28.772Z,18.62
2023-02-28T16:17:09.959Z,18.26
2023-02-28T16:19:40.533Z,18.25
2023-02-28T16:22:12.505Z,18.73
2023-02-28T16:24:44.287Z,18.83
2023-02-28T16:27:29.649Z,18.91
2023-02-28T16:30:02.613Z,18.90
2023-02-28T16:32:36.835Z,18.59
2023-02-28T16:35:10.140Z,18.54
2023-02-28T16:37:40.884Z,18.14
2023-02-28T16:40:17.985Z,18.05
2023-02-28T16:42:53.309Z,18.22
2023-02-28T16:45:27.081Z,18.36
2023-02-28T16:47:58.569Z,18.25
2023-02-28T16:50:31.802Z,17.93
2023-02-28T16:53:02.451Z,18.24
2023-02-28T16:55:32.992Z,18.38
2023-02-28T16:58:04.774Z,18.18
2023-02-28T17:00:35.610Z,17.93
2023-02-28T17:03:07.488Z,18.08
2023-02-28T17:05:40.967Z,18.03
2023-02-28T17:08:13.110Z,17.89
2023-02-28T17:10:43.701Z,17.91
2023-02-28T17:13:15.457Z,17.72
2023-02-28T17:15:48.912Z,17.69
2023-02-28T17:18:22.426Z,17.15
2023-02-28T17:20:53.027Z,17.31
2023-02-28T17:23:23.802Z,17.63
2023-02-28T17:25:58.321Z,17.42
2023-02-28T17:28:28.862Z,17.70
2023-02-28T17:30:59.540Z,17.64
2023-02-28T17:33:30.137Z,17.65
2023-02-28T17:36:00.753Z,17.46
2023-02-28T17:38:31.678Z,17.27
2023-02-28T17:41:03.503Z,17.25
2023-02-28T17:43:34.232Z,17.82
2023-02-28T17:46:06.612Z,17.48
2023-02-28T17:48:37.197Z,17.24
2023-02-28T17:51:07.783Z,17.23
2023-02-28T17:53:38.347Z,17.27
2023-02-28T17:56:24.501Z,17.13
2023-02-28T17:58:56.957Z,16.88
2023-02-28T18:01:29.757Z,16.87
2023-02-28T18:04:01.807Z,16.88
2023-02-28T18:06:40.852Z,16.67
2023-02-28T18:09:15.063Z,16.52
2023-02-28T18:11:50.421Z,16.56
2023-02-28T18:14:25.176Z,16.64
2023-02-28T18:17:03.092Z,16.40
2023-02-28T18:19:35.933Z,16.82
2023-02-28T18:22:11.155Z,17.28
2023-02-28T18:24:45.319Z,16.65
2023-02-28T18:27:22.237Z,16.47
2023-02-28T18:29:59.742Z,16.60
2023-02-28T18:32:34.350Z,16.21
2023-02-28T18:35:08.780Z,15.36
2023-02-28T18:37:41.278Z,15.91
2023-02-28T18:40:16.511Z,14.98
2023-02-28T18:42:50.406Z,14.91
2023-02-28T18:45:23.734Z,15.51
2023-02-28T18:48:01.422Z,15.99
2023-02-28T18:50:35.840Z,16.24
2023-02-28T18:53:07.900Z,15.23
2023-02-28T18:55:43.184Z,15.15
2023-02-28T18:58:20.675Z,15.57
2023-02-28T19:00:52.700Z,15.15
2023-02-28T19:03:25.835Z,14.57
2023-02-28T19:06:02.573Z,14.77
2023-02-28T19:08:35.028Z,14.88
2023-02-28T19:11:10.591Z,14.68
2023-02-28T19:13:44.670Z,14.91
2023-02-28T19:16:22.533Z,14.66
2023-02-28T19:18:56.205Z,15.18
2023-02-28T19:21:30.294Z,15.22
2023-02-28T19:24:03.984Z,15.15
2023-02-28T19:26:36.587Z,16.13
2023-02-28T19:29:10.778Z,16.01
2023-02-28T19:31:46.092Z,16.03
2023-02-28T19:34:20.033Z,16.11
2023-02-28T19:36:55.648Z,16.07
2023-02-28T19:39:27.217Z,15.57
2023-02-28T19:41:59.388Z,15.62
2023-02-28T19:44:33.046Z,15.58
2023-02-28T19:47:12.757Z,15.61
2023-02-28T19:49:47.600Z,15.46
2023-02-28T19:52:21.685Z,15.62
2023-02-28T19:54:55.393Z,15.44
2023-02-28T19:57:29.074Z,15.44
2023-02-28T20:00:01.646Z,15.84
2023-02-28T20:02:34.440Z,15.74
2023-02-28T20:05:06.409Z,15.62
2023-02-28T20:07:41.673Z,15.33
2023-02-28T20:10:15.838Z,15.33
2023-02-28T20:12:48.465Z,15.68
2023-02-28T20:15:22.501Z,15.61
2023-02-28T20:17:58.006Z,15.63
2023-02-28T20:20:30.939Z,15.23
2023-02-28T20:23:02.922Z,15.46
2023-02-28T20:25:38.030Z,15.05
2023-02-28T20:28:10.855Z,15.20
2023-02-28T20:30:43.085Z,15.14
2023-02-28T20:33:19.912Z,15.07
2023-02-28T20:35:55.951Z,15.25
2023-02-28T20:38:33.374Z,15.19
2023-02-28T20:41:06.538Z,15.24
2023-02-28T20:43:37.992Z,14.87
2023-02-28T20:46:12.556Z,14.57
2023-02-28T20:48:45.576Z,14.77
2023-02-28T20:51:20.203Z,14.87
2023-02-28T20:53:52.023Z,14.89
2023-02-28T20:56:27.355Z,14.47
2023-02-28T20:58:59.007Z,14.26
2023-02-28T21:01:30.920Z,15.03
2023-02-28T21:04:06.191Z,14.86
2023-02-28T21:06:43.791Z,14.81
2023-02-28T21:09:16.839Z,14.78
2023-02-28T21:11:47.583Z,14.78
2023-02-28T21:14:18.969Z,14.42
2023-02-28T21:16:49.646Z,14.58
2023-02-28T21:19:20.734Z,14.67
2023-02-28T21:21:51.449Z,14.58
2023-02-28T21:24:22.512Z,14.28
2023-02-28T21:26:54.124Z,14.23
2023-02-28T21:29:25.054Z,14.11
2023-02-28T21:31:56.838Z,13.93
2023-02-28T21:34:28.656Z,14.17
2023-02-28T21:36:59.229Z,14.34
2023-02-28T21:39:30.317Z,14.44
2023-02-28T21:42:02.483Z,14.25
2023-02-28T21:44:34.959Z,14.18
2023-02-28T21:47:05.643Z,14.59
2023-02-28T21:49:36.227Z,14.35
2023-02-28T21:52:07.003Z,14.09
2023-02-28T21:54:37.606Z,14.27
2023-02-28T21:57:08.282Z,14.48
2023-02-28T21:59:39.102Z,14.38
2023-02-28T22:02:12.347Z,14.37
2023-02-28T22:04:44.160Z,14.37
2023-02-28T22:07:15.772Z,14.37
2023-02-28T22:09:46.358Z,14.37
2023-02-28T22:12:17.005Z,14.54
2023-02-28T22:14:47.705Z,14.06
2023-02-28T22:17:18.291Z,14.41
2023-02-28T22:19:49.900Z,14.08
2023-02-28T22:22:21.276Z,14.27
2023-02-28T22:24:51.867Z,13.94
2023-02-28T22:27:23.570Z,14.35
2023-02-28T22:29:58.519Z,14.24
2023-02-28T22:32:29.208Z,13.90
2023-02-28T22:34:59.850Z,14.16
2023-02-28T22:37:30.526Z,14.49
2023-02-28T22:40:01.144Z,14.30
2023-02-28T22:42:34.886Z,14.05
2023-02-28T22:45:05.641Z,13.87
2023-02-28T22:47:37.392Z,13.73
2023-02-28T22:50:08.468Z,13.59
2023-02-28T22:52:41.546Z,13.91
2023-02-28T22:55:12.844Z,13.27
2023-02-28T22:57:43.422Z,13.49
2023-02-28T23:00:15.652Z,13.77
2023-02-28T23:02:47.701Z,14.18
2023-02-28T23:05:18.384Z,13.84
2023-02-28T23:07:48.998Z,13.88
2023-02-28T23:10:20.158Z,13.78
2023-02-28T23:13:00.883Z,13.93
2023-02-28T23:15:31.519Z,13.55
2023-02-28T23:18:02.114Z,14.23
2023-02-28T23:20:32.710Z,13.87
2023-02-28T23:23:03.363Z,13.88
2023-02-28T23:25:33.930Z,13.68
2023-02-28T23:28:04.487Z,13.74
2023-02-28T23:30:36.725Z,12.63
2023-02-28T23:33:08.132Z,13.28
2023-02-28T23:35:38.773Z,13.18
2023-02-28T23:38:09.366Z,13.37
2023-02-28T23:40:42.154Z,13.56
2023-02-28T23:43:12.702Z,13.38
2023-02-28T23:45:44.976Z,13.19
2023-02-28T23:48:16.184Z,13.65
2023-02-28T23:50:46.806Z,13.63
2023-02-28T23:53:17.345Z,13.26
2023-02-28T23:55:50.226Z,13.57
2023-02-28T23:58:20.793Z,13.51
